Time;durP1;ratioP1;P1;durP2;ratioP2;P2;SDS_P1;SDS_P2;PMS_P1;PMS_P2;Temp;Humidity;BMP_temperature;BMP_pressure;BME280_temperature;BME280_humidity;BME280_pressure;Samples;Min_cycle;Max_cycle;Signal;HPM_P1;HPM_P2
2021/03/07 00:01:15;;;;;;;9.40;1.92;;;;;;;2.88;66.75;102644.47;10196451;28;20044;-76
2021/03/07 00:06:12;;;;;;;6.45;1.60;;;;;;;2.83;66.89;102636.16;10206652;28;20473;-70
2021/03/07 00:11:07;;;;;;;9.25;1.90;;;;;;;2.83;66.56;102628.06;10211357;28;20080;-68
2021/03/07 00:16:04;;;;;;;8.70;1.75;;;;;;;2.74;67.37;102625.63;10204886;28;20065;-68
2021/03/07 00:21:00;;;;;;;6.55;1.60;;;;;;;2.83;67.67;102603.72;10209715;28;20443;-68
2021/03/07 00:25:56;;;;;;;9.15;2.00;;;;;;;2.81;67.11;102601.28;10208134;28;20045;-68
2021/03/07 00:30:52;;;;;;;7.15;1.88;;;;;;;2.81;66.84;102598.56;10215064;28;20044;-69
2021/03/07 00:35:48;;;;;;;7.22;1.95;;;;;;;2.86;66.33;102597.91;10214587;28;20049;-71
2021/03/07 00:40:44;;;;;;;10.90;2.42;;;;;;;2.86;66.22;102589.81;10209305;28;20590;-68
2021/03/07 00:45:40;;;;;;;4.90;1.30;;;;;;;2.82;65.77;102594.81;10187422;28;20577;-69
2021/03/07 00:50:36;;;;;;;5.93;1.35;;;;;;;2.79;66.09;102589.03;10192131;28;20104;-70
2021/03/07 00:55:32;;;;;;;5.63;1.40;;;;;;;2.78;66.36;102580.06;10220327;28;20073;-69
2021/03/07 01:00:30;;;;;;;11.93;1.75;;;;;;;2.82;65.73;102577.78;10204214;28;20508;-70
2021/03/07 01:05:31;;;;;;;5.65;1.25;;;;;;;2.95;65.70;102564.16;10199449;28;20053;-68
2021/03/07 01:10:39;;;;;;;4.20;1.75;;;;;;;2.91;65.69;102552.13;10218265;28;20069;-69
2021/03/07 01:15:36;;;;;;;8.65;2.13;;;;;;;2.80;65.84;102550.97;10214234;28;20073;-71
2021/03/07 01:20:32;;;;;;;4.82;1.27;;;;;;;2.79;66.23;102543.94;10202609;28;20467;-68
2021/03/07 01:25:33;;;;;;;5.75;1.42;;;;;;;2.77;66.01;102534.41;10210800;28;20061;-73
2021/03/07 01:30:31;;;;;;;9.40;1.45;;;;;;;2.86;65.91;102512.28;10196023;28;20112;-71
2021/03/07 01:35:27;;;;;;;5.13;1.30;;;;;;;2.77;65.92;102519.00;10182649;28;20069;-69
2021/03/07 01:40:35;;;;;;;5.65;1.10;;;;;;;2.73;66.23;102515.09;10215419;28;20053;-67
2021/03/07 01:45:33;;;;;;;6.18;1.33;;;;;;;2.77;65.61;102507.38;10203578;28;20080;-71
2021/03/07 01:50:32;;;;;;;3.55;0.98;;;;;;;2.69;66.30;102509.31;10203595;28;20634;-72
2021/03/07 01:55:32;;;;;;;3.47;0.90;;;;;;;2.70;66.99;102494.75;10204102;28;20491;-72
2021/03/07 02:00:30;;;;;;;5.97;1.05;;;;;;;2.56;67.80;102495.91;10210940;28;20590;-69
2021/03/07 02:05:27;;;;;;;7.18;1.50;;;;;;;2.52;68.32;102494.69;10198657;28;20953;-68
2021/03/07 02:10:27;;;;;;;6.80;1.42;;;;;;;2.61;67.97;102481.75;10201952;28;20136;-69
2021/03/07 02:15:27;;;;;;;6.63;1.40;;;;;;;2.56;67.89;102473.50;10203022;28;20046;-67
2021/03/07 02:20:26;;;;;;;4.82;1.25;;;;;;;2.62;68.25;102468.03;10209336;28;20052;-68
2021/03/07 02:25:24;;;;;;;9.25;2.50;;;;;;;2.64;67.61;102460.50;10202925;28;20076;-68
2021/03/07 02:30:21;;;;;;;9.38;1.38;;;;;;;2.65;67.71;102450.56;10195921;28;20080;-68
2021/03/07 02:35:21;;;;;;;2.35;1.00;;;;;;;2.50;68.15;102437.38;10210071;28;20121;-68
2021/03/07 02:40:20;;;;;;;6.65;1.50;;;;;;;2.60;67.47;102432.31;10194631;28;20097;-70
2021/03/07 02:45:35;;;;;;;4.75;1.35;;;;;;;2.66;66.89;102431.41;10199281;28;20530;-67
2021/03/07 02:50:32;;;;;;;6.63;1.23;;;;;;;2.66;66.49;102430.59;10209683;28;20104;-67
2021/03/07 02:55:45;;;;;;;3.70;1.42;;;;;;;2.63;66.84;102426.47;10074652;28;20398;-68
2021/03/07 03:00:50;;;;;;;5.30;1.45;;;;;;;2.62;66.55;102414.03;10078343;28;20051;-67
2021/03/07 03:05:48;;;;;;;6.28;1.50;;;;;;;2.65;66.46;102408.16;10068696;28;20071;-67
2021/03/07 03:10:48;;;;;;;3.55;1.10;;;;;;;2.48;67.25;102401.69;10073444;28;20160;-67
2021/03/07 03:15:59;;;;;;;6.35;1.48;;;;;;;2.53;67.22;102391.88;10088637;28;20074;-67
2021/03/07 03:21:03;;;;;;;5.55;1.52;;;;;;;2.62;66.92;102397.81;10067553;28;20058;-67
2021/03/07 03:26:00;;;;;;;4.97;1.40;;;;;;;2.62;67.20;102386.16;10165760;28;20381;-68
2021/03/07 03:30:57;;;;;;;8.40;1.42;;;;;;;2.51;67.36;102385.88;10198861;28;20080;-66
2021/03/07 03:35:54;;;;;;;2.55;1.05;;;;;;;2.66;66.85;102382.78;10200378;28;20073;-71
2021/03/07 03:40:55;;;;;;;9.05;1.50;;;;;;;2.60;67.06;102378.31;10200793;28;20050;-67
2021/03/07 03:45:56;;;;;;;5.97;1.83;;;;;;;2.61;67.32;102369.16;10198720;28;20072;-68
2021/03/07 03:50:53;;;;;;;3.70;1.13;;;;;;;2.62;66.99;102362.72;10186639;28;20076;-69
2021/03/07 03:55:52;;;;;;;4.25;1.50;;;;;;;2.63;66.99;102363.53;10198875;28;20054;-71
2021/03/07 04:00:54;;;;;;;7.57;1.45;;;;;;;2.66;66.52;102361.19;10218592;28;20523;-67
2021/03/07 04:05:51;;;;;;;5.85;1.65;;;;;;;2.55;66.72;102347.63;10192018;28;20565;-70
2021/03/07 04:10:50;;;;;;;6.85;1.60;;;;;;;2.54;66.51;102357.59;10213352;28;20054;-67
2021/03/07 04:15:46;;;;;;;7.35;2.10;;;;;;;2.58;66.38;102345.31;10208689;28;20102;-68
2021/03/07 04:20:44;;;;;;;6.65;2.53;;;;;;;2.66;66.47;102338.75;10218410;28;20050;-69
2021/03/07 04:25:41;;;;;;;6.78;1.80;;;;;;;2.61;66.22;102342.13;10218119;28;20186;-70
2021/03/07 04:30:37;;;;;;;6.72;1.63;;;;;;;2.62;65.80;102342.97;10210340;28;20066;-67
2021/03/07 04:35:34;;;;;;;5.72;1.45;;;;;;;2.69;65.87;102339.16;10212879;28;20050;-73
2021/03/07 04:40:32;;;;;;;5.82;2.20;;;;;;;2.70;65.89;102331.88;10205153;28;20045;-66
2021/03/07 04:45:28;;;;;;;5.50;1.83;;;;;;;2.68;66.30;102329.38;10214326;28;20566;-67
2021/03/07 04:50:24;;;;;;;7.07;1.98;;;;;;;2.63;65.99;102323.84;10210577;28;20092;-68
2021/03/07 04:55:21;;;;;;;4.90;2.10;;;;;;;2.55;66.53;102321.44;10208828;28;20074;-68
2021/03/07 05:00:17;;;;;;;7.35;2.03;;;;;;;2.56;67.04;102323.09;10211425;28;20948;-67
2021/03/07 05:05:13;;;;;;;5.72;2.15;;;;;;;2.58;67.29;102318.28;10206502;28;20045;-67
2021/03/07 05:10:10;;;;;;;6.53;1.88;;;;;;;2.61;67.06;102320.53;10196952;28;20061;-70
2021/03/07 05:15:08;;;;;;;6.47;2.22;;;;;;;2.59;67.03;102319.94;10204963;28;20707;-69
2021/03/07 05:20:05;;;;;;;6.72;2.33;;;;;;;2.53;67.69;102313.56;10203446;28;20054;-67
2021/03/07 05:25:02;;;;;;;5.22;1.85;;;;;;;2.56;67.34;102296.09;10215253;28;20118;-69
2021/03/07 05:29:59;;;;;;;8.18;2.40;;;;;;;2.54;68.11;102309.00;10184085;28;20133;-68
2021/03/07 05:34:55;;;;;;;7.40;2.15;;;;;;;2.55;67.90;102299.81;10199801;28;20424;-71
2021/03/07 05:39:52;;;;;;;5.15;1.73;;;;;;;2.52;68.31;102294.88;10192149;28;20053;-69
2021/03/07 05:44:48;;;;;;;5.03;2.28;;;;;;;2.52;67.86;102294.88;10208572;28;20041;-70
2021/03/07 05:49:45;;;;;;;4.35;2.47;;;;;;;2.61;67.91;102282.72;10200672;28;20104;-70
2021/03/07 05:54:41;;;;;;;4.10;2.00;;;;;;;2.62;67.60;102278.16;10203887;28;20045;-70
2021/03/07 05:59:37;;;;;;;3.55;1.85;;;;;;;2.51;67.97;102287.84;10208886;28;20057;-69
2021/03/07 06:04:33;;;;;;;6.75;3.10;;;;;;;2.58;67.94;102277.78;10197425;28;20096;-66
2021/03/07 06:09:30;;;;;;;9.15;2.72;;;;;;;2.65;68.35;102273.13;10212560;28;20058;-67
2021/03/07 06:14:31;;;;;;;7.10;2.10;;;;;;;2.58;68.03;102277.78;10204837;28;20046;-68
2021/03/07 06:19:28;;;;;;;6.88;2.13;;;;;;;2.66;67.84;102263.97;10199644;28;20462;-70
2021/03/07 06:24:44;;;;;;;8.23;2.78;;;;;;;2.79;67.58;102259.47;10204472;28;20100;-72
2021/03/07 06:30:03;;;;;;;7.53;2.60;;;;;;;2.79;67.50;102263.00;10205133;28;20053;-69
2021/03/07 06:35:00;;;;;;;7.07;2.10;;;;;;;2.63;68.05;102269.84;10212250;28;20547;-70
2021/03/07 06:39:56;;;;;;;5.07;2.08;;;;;;;2.71;67.98;102261.41;10201588;28;20069;-70
2021/03/07 06:44:53;;;;;;;7.20;2.55;;;;;;;2.66;68.54;102268.56;10183150;28;20054;-71
2021/03/07 06:50:06;;;;;;;8.88;2.47;;;;;;;2.77;68.37;102269.69;10208854;28;20048;-70
2021/03/07 06:55:04;;;;;;;8.80;2.63;;;;;;;2.78;68.24;102276.72;10201723;28;20044;-71
2021/03/07 07:00:00;;;;;;;10.30;2.63;;;;;;;2.59;68.72;102263.22;10203922;28;20053;-70
2021/03/07 07:04:56;;;;;;;8.05;2.47;;;;;;;2.58;69.06;102280.50;10198740;28;20042;-70
2021/03/07 07:10:06;;;;;;;7.60;2.75;;;;;;;2.71;68.11;102272.22;10205827;28;20100;-72
2021/03/07 07:15:12;;;;;;;11.20;3.20;;;;;;;2.80;68.17;102261.91;10175648;28;20139;-72
2021/03/07 07:20:10;;;;;;;7.80;2.88;;;;;;;2.95;67.64;102261.53;10167011;28;20046;-71
2021/03/07 07:25:07;;;;;;;6.70;2.10;;;;;;;2.95;66.24;102258.84;10166618;28;20046;-68
2021/03/07 07:30:07;;;;;;;7.70;2.78;;;;;;;2.79;66.31;102246.78;10140941;28;20097;-70
2021/03/07 07:35:20;;;;;;;8.95;2.28;;;;;;;2.89;65.51;102251.63;10205204;28;20110;-68
2021/03/07 07:40:16;;;;;;;7.90;2.70;;;;;;;2.89;64.03;102246.22;10213025;28;20045;-69
2021/03/07 07:45:12;;;;;;;9.27;2.00;;;;;;;2.90;64.02;102242.47;10198834;28;20037;-70
2021/03/07 07:50:31;;;;;;;11.68;2.63;;;;;;;2.98;62.28;102255.66;10216518;28;20058;-70
2021/03/07 07:55:46;;;;;;;12.38;1.75;;;;;;;2.97;63.00;102242.38;10206783;28;20045;-72
2021/03/07 08:00:49;;;;;;;9.88;1.92;;;;;;;3.06;62.49;102241.81;10205291;28;20475;-71
2021/03/07 08:05:46;;;;;;;7.75;3.08;;;;;;;3.16;62.00;102242.09;10209397;28;20096;-70
2021/03/07 08:10:43;;;;;;;6.88;1.45;;;;;;;3.09;62.18;102246.78;10201423;28;20045;-71
2021/03/07 08:15:48;;;;;;;8.38;2.38;;;;;;;3.20;61.75;102241.63;10208515;28;20730;-71
2021/03/07 08:20:44;;;;;;;7.45;1.60;;;;;;;3.04;62.35;102243.94;10199995;28;20077;-69
2021/03/07 08:25:47;;;;;;;11.50;1.90;;;;;;;3.13;61.73;102237.16;10201028;28;20062;-68
2021/03/07 08:30:43;;;;;;;6.75;1.33;;;;;;;3.21;61.63;102221.66;10217700;28;20045;-69
2021/03/07 08:35:39;;;;;;;5.28;2.17;;;;;;;3.21;61.93;102210.84;10219619;28;20136;-67
2021/03/07 08:40:37;;;;;;;12.15;1.73;;;;;;;3.29;61.81;102215.91;10210567;28;20064;-67
2021/03/07 08:45:34;;;;;;;8.18;1.80;;;;;;;3.30;61.31;102217.56;10207060;28;20080;-68
2021/03/07 08:50:31;;;;;;;6.20;1.48;;;;;;;3.26;61.46;102216.38;10197483;28;20084;-67
2021/03/07 08:55:28;;;;;;;11.90;1.88;;;;;;;3.40;60.94;102211.59;10223126;28;20045;-67
2021/03/07 09:00:25;;;;;;;9.70;1.60;;;;;;;3.34;61.93;102210.63;10220514;28;20063;-67
2021/03/07 09:05:30;;;;;;;7.35;1.73;;;;;;;3.36;61.33;102203.09;10198939;28;20062;-71
2021/03/07 09:10:41;;;;;;;7.70;1.92;;;;;;;3.33;61.28;102203.59;10204269;28;20045;-67
2021/03/07 09:15:40;;;;;;;6.88;1.33;;;;;;;3.45;61.71;102182.78;10185830;28;20049;-70
2021/03/07 09:20:44;;;;;;;12.48;2.40;;;;;;;3.74;60.66;102191.84;10221758;28;20497;-69
2021/03/07 09:25:49;;;;;;;7.70;1.95;;;;;;;4.10;60.55;102180.97;10196285;28;20060;-68
2021/03/07 09:30:55;;;;;;;10.73;2.03;;;;;;;4.25;59.85;102175.91;10192922;28;20065;-67
2021/03/07 09:36:24;;;;;;;9.15;2.03;;;;;;;4.43;59.64;102175.72;10198379;28;20422;-68
2021/03/07 09:41:28;;;;;;;10.70;2.97;;;;;;;4.41;60.00;102169.72;10184715;28;20059;-67
2021/03/07 09:46:24;;;;;;;;;;;;;;;4.51;58.94;102173.69;10195559;28;20049;-69
2021/03/07 09:51:21;;;;;;;6.75;1.88;;;;;;;4.52;57.94;102175.34;10202519;28;19928;-67
2021/03/07 09:56:31;;;;;;;7.72;1.88;;;;;;;4.58;57.40;102169.78;10203525;28;20085;-71
2021/03/07 10:01:39;;;;;;;7.32;1.75;;;;;;;4.66;57.43;102152.28;10183803;28;20053;-69
2021/03/07 10:06:36;;;;;;;10.45;3.15;;;;;;;4.55;57.45;102147.75;10201185;28;20549;-69
2021/03/07 10:11:32;;;;;;;6.07;1.75;;;;;;;4.86;57.24;102151.84;10198614;28;20094;-68
2021/03/07 10:16:33;;;;;;;7.53;2.17;;;;;;;4.91;56.51;102132.16;10195713;28;20060;-68
2021/03/07 10:21:33;;;;;;;5.32;1.40;;;;;;;4.69;57.38;102168.09;10191462;28;20511;-67
2021/03/07 10:26:30;;;;;;;7.57;1.70;;;;;;;5.07;56.20;102142.19;10196117;28;20134;-68
2021/03/07 10:31:26;;;;;;;7.43;2.15;;;;;;;4.97;56.68;102147.44;10197396;28;20050;-67
2021/03/07 10:36:39;;;;;;;7.10;2.08;;;;;;;4.97;58.05;102147.44;10210087;28;20057;-68
2021/03/07 10:41:35;;;;;;;12.13;2.92;;;;;;;5.08;57.82;102143.81;10199006;28;20677;-70
2021/03/07 10:46:37;;;;;;;9.70;2.72;;;;;;;5.15;58.72;102133.66;10199777;28;20060;-71
2021/03/07 10:51:49;;;;;;;13.18;2.72;;;;;;;5.04;59.41;102142.69;10188283;28;20049;-69
2021/03/07 10:56:46;;;;;;;12.93;2.63;;;;;;;5.02;59.62;102123.13;10200265;28;20092;-70
2021/03/07 11:01:43;;;;;;;8.52;2.72;;;;;;;4.77;59.99;102135.16;10206416;28;20045;-67
2021/03/07 11:06:40;;;;;;;8.60;2.88;;;;;;;4.88;60.01;102127.22;10200147;28;20050;-69
2021/03/07 11:11:37;;;;;;;6.03;2.33;;;;;;;4.76;60.58;102130.81;10195735;28;20119;-67
2021/03/07 11:16:33;;;;;;;10.10;2.67;;;;;;;4.80;59.49;102126.56;10196199;28;20068;-67
2021/03/07 11:21:46;;;;;;;7.57;2.83;;;;;;;4.60;60.36;102139.75;10191556;28;20073;-66
2021/03/07 11:26:42;;;;;;;8.98;2.95;;;;;;;4.54;59.54;102119.03;10192789;28;20136;-68
2021/03/07 11:31:38;;;;;;;9.20;2.65;;;;;;;4.57;58.94;102110.41;10194759;28;20097;-68
2021/03/07 11:36:34;;;;;;;9.77;3.10;;;;;;;4.62;59.09;102129.50;10197200;28;20099;-67
2021/03/07 11:41:30;;;;;;;9.50;2.83;;;;;;;4.47;60.75;102104.81;10210757;28;20103;-71
2021/03/07 11:46:26;;;;;;;8.25;2.90;;;;;;;4.42;61.13;102098.22;10193673;28;20470;-71
2021/03/07 11:51:23;;;;;;;8.93;3.33;;;;;;;4.36;61.24;102093.81;10193123;28;20058;-72
2021/03/07 11:56:19;;;;;;;13.35;5.30;;;;;;;4.41;61.86;102091.19;10176257;28;20144;-71
2021/03/07 12:01:15;;;;;;;16.35;5.78;;;;;;;4.46;62.79;102086.94;10209836;28;20049;-72
2021/03/07 12:06:11;;;;;;;14.85;5.47;;;;;;;4.63;62.68;102077.75;10197582;28;20053;-70
2021/03/07 12:11:07;;;;;;;12.02;5.35;;;;;;;4.62;62.29;102069.88;10196974;28;20057;-68
2021/03/07 12:16:04;;;;;;;19.17;7.53;;;;;;;4.47;63.79;102066.91;10193972;28;20100;-71
2021/03/07 12:21:00;;;;;;;12.90;6.90;;;;;;;4.49;64.26;102078.31;10203305;28;20041;-69
2021/03/07 12:25:56;;;;;;;22.55;8.73;;;;;;;4.60;64.30;102069.31;10197998;28;20433;-68
2021/03/07 12:30:53;;;;;;;18.02;6.28;;;;;;;4.48;64.95;102054.97;10208143;28;20049;-68
2021/03/07 12:35:49;;;;;;;15.05;6.35;;;;;;;4.41;64.76;102042.44;10198130;28;20503;-69
2021/03/07 12:40:45;;;;;;;14.77;7.00;;;;;;;4.54;65.34;102035.06;10196417;28;20085;-68
2021/03/07 12:45:42;;;;;;;14.48;7.50;;;;;;;4.68;64.68;102025.53;10196206;28;20049;-68
2021/03/07 12:50:38;;;;;;;15.60;5.85;;;;;;;4.59;65.11;102021.59;10196128;28;20104;-65
2021/03/07 12:55:34;;;;;;;14.07;7.75;;;;;;;4.65;65.10;102009.78;10203706;28;20053;-66
2021/03/07 13:00:30;;;;;;;15.18;7.07;;;;;;;4.71;65.32;101997.97;10204240;28;20063;-67
2021/03/07 13:05:26;;;;;;;15.65;6.10;;;;;;;4.91;64.88;101986.59;10196553;28;20095;-67
2021/03/07 13:10:23;;;;;;;16.23;8.20;;;;;;;5.04;64.24;101980.03;10201887;28;20165;-71
2021/03/07 13:15:19;;;;;;;21.10;8.57;;;;;;;4.97;64.41;101980.19;10199322;28;20684;-66
2021/03/07 13:20:15;;;;;;;15.18;8.43;;;;;;;5.03;65.55;101972.94;10214326;28;20440;-67
2021/03/07 13:25:12;;;;;;;16.80;8.73;;;;;;;4.94;66.25;101985.28;10207582;28;20073;-68
2021/03/07 13:30:09;;;;;;;22.00;9.80;;;;;;;5.05;65.72;101968.09;10192423;28;20101;-70
2021/03/07 13:35:05;;;;;;;18.17;8.13;;;;;;;4.99;66.01;101955.53;10191176;28;21698;-72
2021/03/07 13:40:03;;;;;;;14.13;6.85;;;;;;;5.00;67.02;101968.03;10208891;28;20052;-67
2021/03/07 13:44:59;;;;;;;20.80;9.55;;;;;;;4.94;67.64;101952.75;10171442;28;20049;-68
2021/03/07 13:49:55;;;;;;;19.25;9.27;;;;;;;4.92;67.80;101949.47;10204949;28;20049;-70
2021/03/07 13:54:51;;;;;;;28.67;8.98;;;;;;;5.00;67.73;101951.78;10195635;28;20079;-69
2021/03/07 13:59:47;;;;;;;21.80;8.10;;;;;;;5.08;68.11;101943.19;10206360;28;20054;-70
2021/03/07 14:04:43;;;;;;;24.48;10.38;;;;;;;4.96;68.60;101939.78;10189759;28;20057;-69
2021/03/07 14:09:39;;;;;;;24.30;10.65;;;;;;;4.99;68.54;101933.84;10194809;28;21370;-68
2021/03/07 14:14:35;;;;;;;16.33;7.93;;;;;;;4.96;68.66;101931.66;10212382;28;20049;-69
2021/03/07 14:19:32;;;;;;;19.27;8.48;;;;;;;4.98;68.88;101937.66;10198207;28;20061;-68
2021/03/07 14:24:28;;;;;;;19.98;9.95;;;;;;;5.08;68.36;101918.78;10205992;28;20089;-68
2021/03/07 14:29:24;;;;;;;23.10;9.57;;;;;;;5.13;68.26;101907.19;10183610;28;20451;-68
2021/03/07 14:34:20;;;;;;;20.50;9.32;;;;;;;4.97;69.58;101903.50;10218952;28;20045;-68
2021/03/07 14:39:18;;;;;;;27.83;11.05;;;;;;;4.96;69.45;101907.25;10195118;28;20788;-71
2021/03/07 14:44:14;;;;;;;29.95;12.05;;;;;;;4.94;69.16;101912.09;10194834;28;20096;-68
2021/03/07 14:49:10;;;;;;;19.67;9.70;;;;;;;4.78;69.64;101901.06;10186722;28;20065;-67
2021/03/07 14:54:25;;;;;;;19.15;9.80;;;;;;;4.90;69.26;101892.00;10197032;28;20509;-69
2021/03/07 14:59:21;;;;;;;25.05;8.30;;;;;;;4.85;69.25;101881.94;10209983;28;20045;-68
2021/03/07 15:04:18;;;;;;;22.67;9.98;;;;;;;4.85;69.97;101879.22;10194369;28;20037;-68
2021/03/07 15:09:14;;;;;;;22.80;8.73;;;;;;;4.81;69.02;101878.88;10191077;28;20041;-70
2021/03/07 15:14:10;;;;;;;24.88;9.95;;;;;;;4.91;68.92;101878.19;10201544;28;20103;-71
2021/03/07 15:19:07;;;;;;;26.02;9.75;;;;;;;4.90;68.81;101881.16;10197070;28;20053;-67
2021/03/07 15:24:03;;;;;;;17.65;9.00;;;;;;;4.82;70.18;101874.28;10203538;28;20411;-70
2021/03/07 15:28:59;;;;;;;23.95;8.93;;;;;;;4.74;70.63;101867.41;10195147;28;20144;-70
2021/03/07 15:33:55;;;;;;;22.25;9.13;;;;;;;4.72;71.98;101866.84;10202807;28;20050;-73
2021/03/07 15:38:51;;;;;;;22.30;10.23;;;;;;;4.52;72.84;101869.25;10189916;28;20057;-68
2021/03/07 15:43:47;;;;;;;22.90;9.93;;;;;;;4.39;73.33;101881.28;10176910;28;20127;-69
2021/03/07 15:48:43;;;;;;;28.90;11.95;;;;;;;4.35;74.01;101859.28;10203643;28;20057;-69
2021/03/07 15:53:40;;;;;;;25.10;10.15;;;;;;;4.42;74.32;101854.50;10198685;28;20452;-70
2021/03/07 15:58:36;;;;;;;23.13;9.95;;;;;;;4.37;75.28;101851.72;10207277;28;20046;-68
2021/03/07 16:03:32;;;;;;;28.52;11.27;;;;;;;4.36;75.92;101843.84;10203093;28;20054;-68
2021/03/07 16:08:28;;;;;;;26.80;11.70;;;;;;;4.27;76.23;101842.63;10194191;28;20419;-68
2021/03/07 16:13:24;;;;;;;27.35;12.40;;;;;;;4.24;76.95;101843.94;10215019;28;20099;-69
2021/03/07 16:18:20;;;;;;;26.13;11.07;;;;;;;4.19;77.29;101849.28;10196284;28;20046;-68
2021/03/07 16:23:17;;;;;;;29.48;13.02;;;;;;;4.16;78.93;101847.06;10203421;28;20065;-68
2021/03/07 16:28:13;;;;;;;28.30;12.88;;;;;;;4.12;79.82;101838.63;10221183;28;20037;-69
2021/03/07 16:33:09;;;;;;;28.52;12.95;;;;;;;4.13;79.97;101839.44;10193761;28;20048;-68
2021/03/07 16:38:05;;;;;;;31.15;12.73;;;;;;;4.24;79.81;101841.22;10198738;28;20048;-68
2021/03/07 16:43:04;;;;;;;28.75;11.48;;;;;;;4.07;80.31;101837.72;10201979;28;20094;-68
2021/03/07 16:48:00;;;;;;;30.38;13.07;;;;;;;3.98;80.63;101827.31;10200267;28;20069;-68
2021/03/07 16:52:57;;;;;;;24.52;11.48;;;;;;;4.21;80.17;101837.13;10193086;28;20045;-69
2021/03/07 16:57:53;;;;;;;25.75;12.35;;;;;;;4.18;80.96;101832.22;10197377;28;20073;-69
2021/03/07 17:02:49;;;;;;;31.98;12.65;;;;;;;4.16;81.28;101833.53;10192051;28;20139;-69
2021/03/07 17:07:46;;;;;;;31.75;11.63;;;;;;;4.00;82.86;101836.00;10190266;28;20051;-69
2021/03/07 17:12:42;;;;;;;31.38;13.20;;;;;;;4.03;83.04;101836.56;10201587;28;20053;-70
2021/03/07 17:17:38;;;;;;;29.20;13.27;;;;;;;4.03;83.82;101847.41;10193245;28;20053;-67
2021/03/07 17:22:36;;;;;;;38.78;13.88;;;;;;;4.14;83.48;101849.22;10207041;28;20057;-68
2021/03/07 17:27:33;;;;;;;31.08;13.80;;;;;;;4.17;83.78;101851.41;10208367;28;20073;-69
2021/03/07 17:32:29;;;;;;;38.85;13.02;;;;;;;4.03;84.73;101850.91;10204144;28;20550;-68
2021/03/07 17:37:25;;;;;;;34.40;15.52;;;;;;;4.14;85.07;101851.91;10196714;28;20555;-67
2021/03/07 17:42:21;;;;;;;30.40;13.98;;;;;;;4.11;85.50;101836.19;10206685;28;20054;-69
2021/03/07 17:47:17;;;;;;;35.45;14.57;;;;;;;4.21;85.76;101847.16;10199571;28;20061;-70
2021/03/07 17:52:13;;;;;;;38.35;14.65;;;;;;;4.27;86.03;101850.75;10202132;28;20049;-68
2021/03/07 17:57:10;;;;;;;32.80;13.85;;;;;;;4.14;87.19;101857.31;10201994;28;20746;-68
2021/03/07 18:02:06;;;;;;;31.30;11.95;;;;;;;4.17;86.92;101868.47;10204312;28;20096;-69
2021/03/07 18:07:03;;;;;;;23.10;11.60;;;;;;;4.12;87.72;101870.28;10198316;28;20104;-67
2021/03/07 18:11:59;;;;;;;31.15;11.77;;;;;;;4.10;87.26;101869.72;10194832;28;20057;-66
2021/03/07 18:16:55;;;;;;;21.00;8.55;;;;;;;4.22;87.19;101870.44;10204559;28;20052;-72
2021/03/07 18:21:51;;;;;;;20.08;9.38;;;;;;;4.22;86.06;101870.44;10199111;28;20056;-67
2021/03/07 18:27:03;;;;;;;20.80;8.82;;;;;;;4.16;86.77;101866.03;10202797;28;20049;-68
2021/03/07 18:32:00;;;;;;;28.52;10.43;;;;;;;4.23;85.99;101863.97;10199497;28;20057;-67
2021/03/07 18:36:56;;;;;;;17.98;9.10;;;;;;;4.23;86.39;101866.69;10192360;28;20049;-70
2021/03/07 18:42:10;;;;;;;;;;;;;;;4.29;85.87;101871.09;10200698;28;20045;-69
2021/03/07 18:47:07;;;;;;;26.48;10.95;;;;;;;4.33;86.13;101872.22;10207814;28;20290;-67
2021/03/07 18:52:03;;;;;;;26.48;10.00;;;;;;;4.43;85.63;101872.41;10186988;28;20049;-65
2021/03/07 18:57:00;;;;;;;24.13;9.93;;;;;;;4.34;85.23;101868.47;10183406;28;20550;-68
2021/03/07 19:01:56;;;;;;;24.75;9.80;;;;;;;4.36;84.52;101865.50;10193006;28;20072;-68
2021/03/07 19:06:53;;;;;;;24.85;8.75;;;;;;;4.41;84.72;101858.28;10193707;28;20057;-67
2021/03/07 19:11:49;;;;;;;33.70;12.18;;;;;;;4.46;83.89;101870.28;10196296;28;20057;-67
2021/03/07 19:16:45;;;;;;;25.25;10.48;;;;;;;4.42;84.20;101862.63;10187792;28;20221;-68
2021/03/07 19:21:42;;;;;;;24.23;8.55;;;;;;;4.41;83.48;101873.72;10186479;28;20499;-68
2021/03/07 19:26:38;;;;;;;21.10;7.40;;;;;;;4.46;82.73;101883.81;10194760;28;20076;-69
2021/03/07 19:31:34;;;;;;;21.55;6.55;;;;;;;4.29;81.45;101890.03;10195597;28;20050;-68
2021/03/07 19:36:30;;;;;;;28.58;8.75;;;;;;;4.31;81.23;101884.38;10198872;28;20061;-68
2021/03/07 19:41:26;;;;;;;20.92;7.13;;;;;;;4.32;81.39;101896.88;10200846;28;20085;-68
2021/03/07 19:46:22;;;;;;;18.83;6.25;;;;;;;4.18;79.19;101885.56;10201638;28;20799;-69
2021/03/07 19:51:18;;;;;;;18.70;6.18;;;;;;;4.02;79.91;101881.78;10203771;28;20537;-70
2021/03/07 19:56:14;;;;;;;16.17;4.57;;;;;;;3.90;78.84;101895.38;10193675;28;20111;-70
2021/03/07 20:01:10;;;;;;;19.00;3.72;;;;;;;3.77;76.74;101901.09;10197621;28;20081;-68
2021/03/07 20:06:08;;;;;;;18.42;2.72;;;;;;;3.52;75.47;101902.25;10200257;28;20465;-69
2021/03/07 20:11:04;;;;;;;20.65;3.22;;;;;;;3.31;75.19;101913.72;10199128;28;20042;-69
2021/03/07 20:16:01;;;;;;;16.50;2.83;;;;;;;3.33;75.80;101917.00;10199954;28;20068;-68
2021/03/07 20:20:58;;;;;;;22.42;4.05;;;;;;;3.10;73.80;101924.13;10197924;28;20127;-69
2021/03/07 20:25:54;;;;;;;21.75;3.35;;;;;;;3.08;72.90;101931.63;10191125;28;20528;-68
2021/03/07 20:30:50;;;;;;;19.05;3.33;;;;;;;2.92;74.57;101932.38;10209507;28;20060;-69
2021/03/07 20:35:47;;;;;;;24.73;3.17;;;;;;;3.02;74.32;101932.59;10199913;28;20136;-68
2021/03/07 20:40:43;;;;;;;16.85;3.08;;;;;;;2.96;73.89;101944.34;10204033;28;20046;-70
2021/03/07 20:45:39;;;;;;;21.55;2.47;;;;;;;2.95;73.86;101948.13;10176252;28;20111;-68
2021/03/07 20:50:35;;;;;;;15.27;2.95;;;;;;;2.86;73.74;101954.94;10173923;28;20057;-68
2021/03/07 20:55:31;;;;;;;23.10;3.47;;;;;;;2.87;73.19;101953.88;10198959;28;20046;-67
2021/03/07 21:00:27;;;;;;;23.75;3.22;;;;;;;2.67;73.58;101952.34;10210462;28;20069;-71
2021/03/07 21:05:24;;;;;;;19.98;2.92;;;;;;;2.63;73.00;101972.78;10205531;28;20042;-70
2021/03/07 21:10:20;;;;;;;15.77;2.90;;;;;;;2.45;73.32;101972.88;10206464;28;20085;-68
2021/03/07 21:15:17;;;;;;;15.25;2.97;;;;;;;2.58;73.54;101969.97;10202669;28;20049;-70
2021/03/07 21:20:14;;;;;;;19.60;2.33;;;;;;;2.52;73.54;101976.28;10182800;28;20049;-69
2021/03/07 21:25:11;;;;;;;16.02;3.75;;;;;;;2.56;73.22;101988.28;10206697;28;20099;-69
2021/03/07 21:30:08;;;;;;;17.23;2.72;;;;;;;2.40;73.53;101988.94;10206133;28;20072;-69
2021/03/07 21:35:05;;;;;;;14.75;2.05;;;;;;;2.35;73.20;101991.53;10200777;28;20049;-70
2021/03/07 21:40:04;;;;;;;19.00;3.33;;;;;;;2.28;73.57;101997.84;10205809;28;20416;-70
2021/03/07 21:45:00;;;;;;;18.83;3.22;;;;;;;2.17;73.85;102000.50;10211596;28;20046;-68
2021/03/07 21:49:56;;;;;;;18.52;2.63;;;;;;;2.12;73.82;102005.78;10211615;28;20056;-68
2021/03/07 21:54:53;;;;;;;19.67;2.50;;;;;;;2.15;74.29;102000.72;10202693;28;20071;-69
2021/03/07 21:59:49;;;;;;;20.42;4.10;;;;;;;2.10;74.20;102004.13;10203472;28;20523;-68
2021/03/07 22:04:45;;;;;;;18.08;2.92;;;;;;;2.02;74.29;102014.41;10197817;28;20054;-70
2021/03/07 22:09:41;;;;;;;16.70;3.70;;;;;;;1.96;74.12;102015.31;10177230;28;20038;-69
2021/03/07 22:14:37;;;;;;;27.52;4.22;;;;;;;1.92;74.47;102019.53;10184353;28;20033;-70
2021/03/07 22:19:33;;;;;;;15.38;3.00;;;;;;;1.83;74.44;102027.94;10205417;28;20049;-68
2021/03/07 22:24:29;;;;;;;18.35;2.78;;;;;;;1.78;75.20;102019.69;10207569;28;20057;-69
2021/03/07 22:29:25;;;;;;;18.02;3.20;;;;;;;1.76;75.29;102020.97;10199710;28;20566;-69
2021/03/07 22:34:21;;;;;;;18.95;3.20;;;;;;;1.73;75.18;102016.84;10204967;28;20048;-69
2021/03/07 22:39:17;;;;;;;16.48;2.55;;;;;;;1.66;75.12;102022.31;10203487;28;20067;-69
2021/03/07 22:44:13;;;;;;;15.57;3.65;;;;;;;1.75;75.13;102030.94;10215054;28;20435;-69
2021/03/07 22:49:09;;;;;;;15.43;3.05;;;;;;;1.70;75.44;102022.72;10201642;28;20053;-70
2021/03/07 22:54:05;;;;;;;18.40;3.53;;;;;;;1.64;75.52;102023.59;10200892;28;20503;-70